createdAt,value
2019-03-12T00:00:22.123Z,1017.56
2019-03-12T00:02:15.108Z,1017.54
2019-03-12T00:03:15.154Z,1017.49
2019-03-12T00:05:08.133Z,1017.47
2019-03-12T00:06:08.179Z,1017.44
2019-03-12T00:08:01.169Z,1017.43
2019-03-12T00:09:01.259Z,1017.42
2019-03-12T00:10:54.204Z,1017.46
2019-03-12T00:11:54.251Z,1017.41
2019-03-12T00:13:47.225Z,1017.44
2019-03-12T00:14:47.281Z,1017.41
2019-03-12T00:16:40.258Z,1017.41
2019-03-12T00:17:40.308Z,1017.41
2019-03-12T00:19:33.287Z,1017.36
2019-03-12T00:20:33.347Z,1017.43
2019-03-12T00:22:26.328Z,1017.40
2019-03-12T00:23:26.377Z,1017.41
2019-03-12T00:25:19.359Z,1017.43
2019-03-12T00:26:19.405Z,1017.44
2019-03-12T00:28:12.909Z,1017.48
2019-03-12T00:29:12.962Z,1017.46
2019-03-12T00:31:05.935Z,1017.45
2019-03-12T00:32:05.986Z,1017.43
2019-03-12T00:33:58.976Z,1017.48
2019-03-12T00:34:59.013Z,1017.50
2019-03-12T00:36:51.996Z,1017.49
2019-03-12T00:37:52.040Z,1017.48
2019-03-12T00:39:45.013Z,1017.47
2019-03-12T00:40:45.067Z,1017.49
2019-03-12T00:42:38.053Z,1017.55
2019-03-12T00:43:38.102Z,1017.59
2019-03-12T00:45:31.080Z,1017.62
2019-03-12T00:46:31.131Z,1017.58
2019-03-12T00:48:24.131Z,1017.62
2019-03-12T00:49:24.191Z,1017.66
2019-03-12T00:51:17.162Z,1017.69
2019-03-12T00:52:17.209Z,1017.72
2019-03-12T00:54:10.182Z,1017.67
2019-03-12T00:55:10.239Z,1017.69
2019-03-12T00:57:03.230Z,1017.64
2019-03-12T00:58:03.277Z,1017.64
2019-03-12T00:59:56.608Z,1017.59
2019-03-12T01:00:56.301Z,1017.57
2019-03-12T01:02:49.311Z,1017.50
2019-03-12T01:03:49.332Z,1017.44
2019-03-12T01:05:42.307Z,1017.39
2019-03-12T01:06:42.361Z,1017.39
2019-03-12T01:08:35.341Z,1017.39
2019-03-12T01:09:35.388Z,1017.40
2019-03-12T01:11:28.410Z,1017.36
2019-03-12T01:12:28.418Z,1017.36
2019-03-12T01:14:21.407Z,1017.36
2019-03-12T01:15:21.456Z,1017.35
2019-03-12T01:17:14.432Z,1017.31
2019-03-12T01:18:14.479Z,1017.31
2019-03-12T01:20:07.458Z,1017.30
2019-03-12T01:21:07.512Z,1017.28
2019-03-12T01:23:00.497Z,1017.26
2019-03-12T01:24:00.543Z,1017.28
2019-03-12T01:25:53.521Z,1017.23
2019-03-12T01:26:53.572Z,1017.24
2019-03-12T01:28:47.060Z,1017.18
2019-03-12T01:29:47.110Z,1017.16
2019-03-12T01:31:40.105Z,1017.22
2019-03-12T01:32:40.135Z,1017.19
2019-03-12T01:34:33.110Z,1017.19
2019-03-12T01:35:33.165Z,1017.19
2019-03-12T01:37:26.148Z,1017.16
2019-03-12T01:38:26.191Z,1017.17
2019-03-12T01:40:19.169Z,1017.16
2019-03-12T01:41:19.222Z,1017.15
2019-03-12T01:43:12.201Z,1017.18
2019-03-12T01:44:12.248Z,1017.15
2019-03-12T01:46:05.223Z,1017.15
2019-03-12T01:47:05.281Z,1017.12
2019-03-12T01:48:58.339Z,1017.12
2019-03-12T01:49:58.310Z,1017.12
2019-03-12T01:51:51.311Z,1017.09
2019-03-12T01:52:51.343Z,1017.09
2019-03-12T01:54:44.320Z,1017.01
2019-03-12T01:55:44.368Z,1016.95
2019-03-12T01:57:37.351Z,1016.97
2019-03-12T01:58:37.396Z,1016.98
2019-03-12T02:00:30.373Z,1016.97
2019-03-12T02:01:30.425Z,1016.94
2019-03-12T02:03:23.422Z,1016.98
2019-03-12T02:04:23.470Z,1016.94
2019-03-12T02:06:16.445Z,1016.87
2019-03-12T02:07:16.500Z,1016.86
2019-03-12T02:09:09.477Z,1016.81
2019-03-12T02:10:09.525Z,1016.79
2019-03-12T02:12:02.504Z,1016.73
2019-03-12T02:13:02.562Z,1016.73
2019-03-12T02:14:55.563Z,1016.71
2019-03-12T02:15:55.609Z,1016.66
2019-03-12T02:17:48.609Z,1016.61
2019-03-12T02:18:48.634Z,1016.60
2019-03-12T02:20:41.629Z,1016.59
2019-03-12T02:21:41.686Z,1016.54
2019-03-12T02:23:34.678Z,1016.52
2019-03-12T02:24:34.717Z,1016.48
2019-03-12T02:26:27.746Z,1016.51
2019-03-12T02:27:27.741Z,1016.44
2019-03-12T02:29:20.727Z,1016.42
2019-03-12T02:30:20.811Z,1016.33
2019-03-12T02:32:13.762Z,1016.30
2019-03-12T02:33:13.864Z,1016.31
2019-03-12T02:35:06.797Z,1016.37
2019-03-12T02:36:06.860Z,1016.37
2019-03-12T02:37:59.836Z,1016.38
2019-03-12T02:38:59.874Z,1016.35
2019-03-12T02:40:52.846Z,1016.29
2019-03-12T02:41:52.902Z,1016.27
2019-03-12T02:43:45.882Z,1016.19
2019-03-12T02:44:45.932Z,1016.19
2019-03-12T02:46:38.926Z,1016.10
2019-03-12T02:47:38.986Z,1016.05
2019-03-12T02:49:31.983Z,1016.03
2019-03-12T02:50:32.018Z,1015.99
2019-03-12T02:52:25.066Z,1015.99
2019-03-12T02:53:25.044Z,1016.01
2019-03-12T02:55:18.056Z,1015.97
2019-03-12T02:56:18.102Z,1015.97
2019-03-12T02:58:11.041Z,1015.97
2019-03-12T02:59:11.103Z,1015.96
2019-03-12T03:01:04.081Z,1015.95
2019-03-12T03:02:04.129Z,1016.01
2019-03-12T03:03:57.103Z,1015.99
2019-03-12T03:04:57.149Z,1015.97
2019-03-12T03:06:50.129Z,1015.96
2019-03-12T03:07:50.182Z,1015.95
2019-03-12T03:09:43.201Z,1015.94
2019-03-12T03:10:43.247Z,1015.91
2019-03-12T03:12:36.224Z,1015.92
2019-03-12T03:13:36.269Z,1015.91
2019-03-12T03:15:29.271Z,1015.94
2019-03-12T03:16:29.318Z,1015.95
2019-03-12T03:18:22.296Z,1015.95
2019-03-12T03:19:22.346Z,1015.91
2019-03-12T03:21:15.325Z,1015.86
2019-03-12T03:22:15.377Z,1015.86
2019-03-12T03:24:08.410Z,1015.82
2019-03-12T03:25:08.410Z,1015.83
2019-03-12T03:27:01.388Z,1015.82
2019-03-12T03:28:01.427Z,1015.83
2019-03-12T03:29:54.413Z,1015.78
2019-03-12T03:30:54.479Z,1015.77
2019-03-12T03:32:47.482Z,1015.68
2019-03-12T03:33:47.486Z,1015.68
2019-03-12T03:35:40.478Z,1015.67
2019-03-12T03:36:40.526Z,1015.67
2019-03-12T03:38:33.502Z,1015.62
2019-03-12T03:39:33.555Z,1015.59
2019-03-12T03:41:26.543Z,1015.53
2019-03-12T03:42:26.597Z,1015.52
2019-03-12T03:44:19.550Z,1015.47
2019-03-12T03:45:19.609Z,1015.47
2019-03-12T03:47:12.624Z,1015.49
2019-03-12T03:48:12.667Z,1015.51
2019-03-12T03:50:05.648Z,1015.51
2019-03-12T03:51:05.704Z,1015.45
2019-03-12T03:52:58.739Z,1015.48
2019-03-12T03:53:58.728Z,1015.46
2019-03-12T03:55:51.708Z,1015.50
2019-03-12T03:56:51.755Z,1015.48
2019-03-12T03:58:44.736Z,1015.53
2019-03-12T03:59:44.777Z,1015.49
2019-03-12T04:01:37.762Z,1015.49
2019-03-12T04:02:37.803Z,1015.48
2019-03-12T04:04:30.779Z,1015.43
2019-03-12T04:05:30.847Z,1015.45
2019-03-12T04:07:23.812Z,1015.42
2019-03-12T04:08:23.858Z,1015.41
2019-03-12T04:10:16.861Z,1015.42
2019-03-12T04:11:16.961Z,1015.43
2019-03-12T04:13:09.887Z,1015.42
2019-03-12T04:14:09.923Z,1015.42
2019-03-12T04:16:02.908Z,1015.38
2019-03-12T04:17:02.951Z,1015.36
2019-03-12T04:18:55.914Z,1015.33
2019-03-12T04:19:55.969Z,1015.38
2019-03-12T04:21:49.007Z,1015.34
2019-03-12T04:22:49.056Z,1015.32
2019-03-12T04:24:42.000Z,1015.33
2019-03-12T04:25:42.052Z,1015.31
2019-03-12T04:27:35.031Z,1015.28
2019-03-12T04:28:35.079Z,1015.26
2019-03-12T04:30:28.050Z,1015.25
2019-03-12T04:31:28.105Z,1015.23
2019-03-12T04:33:21.086Z,1015.13
2019-03-12T04:34:21.132Z,1015.10
2019-03-12T04:36:14.105Z,1015.08
2019-03-12T04:37:14.159Z,1015.03
2019-03-12T04:39:07.159Z,1015.10
2019-03-12T04:40:07.221Z,1015.08
2019-03-12T04:42:00.183Z,1015.09
2019-03-12T04:43:00.229Z,1015.06
2019-03-12T04:44:53.245Z,1015.05
2019-03-12T04:45:53.296Z,1015.07
2019-03-12T04:47:46.281Z,1015.06
2019-03-12T04:48:46.328Z,1015.01
2019-03-12T04:50:39.309Z,1014.99
2019-03-12T04:51:39.361Z,1014.94
2019-03-12T04:53:32.342Z,1014.85
2019-03-12T04:54:32.406Z,1014.82
2019-03-12T04:56:25.381Z,1014.79
2019-03-12T04:57:25.463Z,1014.75
2019-03-12T04:59:18.415Z,1014.78
2019-03-12T05:00:18.472Z,1014.75
2019-03-12T05:02:11.971Z,1014.73
2019-03-12T05:03:11.994Z,1014.67
2019-03-12T05:05:04.967Z,1014.66
2019-03-12T05:06:05.021Z,1014.62
2019-03-12T05:07:58.028Z,1014.60
2019-03-12T05:08:58.053Z,1014.62
2019-03-12T05:10:51.033Z,1014.63
2019-03-12T05:11:51.117Z,1014.59
2019-03-12T05:13:44.100Z,1014.50
2019-03-12T05:14:44.115Z,1014.51
2019-03-12T05:16:37.105Z,1014.49
2019-03-12T05:17:37.160Z,1014.50
2019-03-12T05:19:30.145Z,1014.47
2019-03-12T05:20:30.187Z,1014.54
2019-03-12T05:22:23.160Z,1014.51
2019-03-12T05:23:23.221Z,1014.50
2019-03-12T05:25:16.191Z,1014.56
2019-03-12T05:26:16.239Z,1014.55
2019-03-12T05:28:09.223Z,1014.50
2019-03-12T05:29:09.267Z,1014.51
2019-03-12T05:31:02.253Z,1014.46
2019-03-12T05:32:02.312Z,1014.40
2019-03-12T05:33:55.288Z,1014.38
2019-03-12T05:34:55.334Z,1014.31
2019-03-12T05:36:48.322Z,1014.33
2019-03-12T05:37:48.369Z,1014.34
2019-03-12T05:39:41.353Z,1014.24
2019-03-12T05:40:41.394Z,1014.26
2019-03-12T05:42:34.386Z,1014.22
2019-03-12T05:43:34.426Z,1014.21
2019-03-12T05:45:27.405Z,1014.18
2019-03-12T05:46:27.449Z,1014.16
2019-03-12T05:48:20.424Z,1014.11
2019-03-12T05:49:20.476Z,1014.07
2019-03-12T05:51:13.459Z,1014.05
2019-03-12T05:52:13.507Z,1014.01
2019-03-12T05:54:06.490Z,1013.99
2019-03-12T05:55:06.537Z,1013.98
2019-03-12T05:56:59.514Z,1013.98
2019-03-12T05:57:59.713Z,1013.94
2019-03-12T05:59:52.545Z,1013.91
2019-03-12T06:00:52.588Z,1013.84
2019-03-12T06:02:45.576Z,1013.84
2019-03-12T06:03:45.645Z,1013.86
2019-03-12T06:05:38.595Z,1013.81
2019-03-12T06:06:38.645Z,1013.82
2019-03-12T06:08:31.618Z,1013.83
2019-03-12T06:09:31.671Z,1013.80
2019-03-12T06:11:24.651Z,1013.74
2019-03-12T06:12:24.703Z,1013.74
2019-03-12T06:14:17.696Z,1013.75
2019-03-12T06:15:17.733Z,1013.72
2019-03-12T06:17:10.709Z,1013.71
2019-03-12T06:18:10.755Z,1013.76
2019-03-12T06:20:03.730Z,1013.74
2019-03-12T06:21:03.780Z,1013.67
2019-03-12T06:22:56.776Z,1013.61
2019-03-12T06:23:56.834Z,1013.59
2019-03-12T06:25:49.814Z,1013.57
2019-03-12T06:26:49.853Z,1013.54
2019-03-12T06:28:42.835Z,1013.49
2019-03-12T06:29:42.886Z,1013.49
2019-03-12T06:31:35.869Z,1013.41
2019-03-12T06:32:35.917Z,1013.45
2019-03-12T06:34:28.882Z,1013.41
2019-03-12T06:35:28.983Z,1013.43
2019-03-12T06:37:21.919Z,1013.39
2019-03-12T06:38:21.967Z,1013.39
2019-03-12T06:40:14.943Z,1013.40
2019-03-12T06:41:14.996Z,1013.36
2019-03-12T06:43:07.977Z,1013.33
2019-03-12T06:44:08.022Z,1013.28
2019-03-12T06:46:01.026Z,1013.28
2019-03-12T06:47:01.079Z,1013.24
2019-03-12T06:48:54.074Z,1013.21
2019-03-12T06:49:54.109Z,1013.19
2019-03-12T06:51:47.089Z,1013.18
2019-03-12T06:52:47.160Z,1013.21
2019-03-12T06:54:40.129Z,1013.18
2019-03-12T06:55:41.297Z,1013.17
2019-03-12T06:57:33.163Z,1013.18
2019-03-12T06:58:33.210Z,1013.21
2019-03-12T07:00:26.186Z,1013.12
2019-03-12T07:01:26.252Z,1013.07
2019-03-12T07:03:19.223Z,1013.06
2019-03-12T07:04:19.266Z,1013.06
2019-03-12T07:06:12.238Z,1013.03
2019-03-12T07:07:12.877Z,1013.02
2019-03-12T07:09:05.283Z,1013.01
2019-03-12T07:10:05.328Z,1012.98
2019-03-12T07:11:58.317Z,1012.86
2019-03-12T07:12:58.358Z,1012.92
2019-03-12T07:14:51.345Z,1012.82
2019-03-12T07:15:51.399Z,1012.78
2019-03-12T07:17:45.740Z,1012.72
2019-03-12T07:18:44.439Z,1012.73
2019-03-12T07:20:37.433Z,1012.68
2019-03-12T07:21:37.468Z,1012.64
2019-03-12T07:23:30.457Z,1012.60
2019-03-12T07:24:30.508Z,1012.55
2019-03-12T07:26:23.486Z,1012.47
2019-03-12T07:27:23.553Z,1012.44
2019-03-12T07:29:16.521Z,1012.46
2019-03-12T07:30:16.571Z,1012.49
2019-03-12T07:32:09.571Z,1012.51
2019-03-12T07:33:09.620Z,1012.41
2019-03-12T07:35:02.594Z,1012.49
2019-03-12T07:36:02.649Z,1012.46
2019-03-12T07:37:55.636Z,1012.47
2019-03-12T07:38:55.684Z,1012.47
2019-03-12T07:40:48.665Z,1012.50
2019-03-12T07:41:48.720Z,1012.52
2019-03-12T07:43:41.731Z,1012.52
2019-03-12T07:44:41.754Z,1012.53
2019-03-12T07:46:34.735Z,1012.53
2019-03-12T07:47:35.934Z,1012.55
2019-03-12T07:49:27.771Z,1012.48
2019-03-12T07:50:27.819Z,1012.50
2019-03-12T07:52:20.815Z,1012.47
2019-03-12T07:53:20.857Z,1012.51
2019-03-12T07:55:13.841Z,1012.52
2019-03-12T07:56:13.887Z,1012.47
2019-03-12T07:58:06.877Z,1012.47
2019-03-12T07:59:08.985Z,1012.41
2019-03-12T08:00:59.891Z,1012.39
2019-03-12T08:01:59.948Z,1012.38
2019-03-12T08:03:52.927Z,1012.37
2019-03-12T08:04:52.976Z,1012.37
2019-03-12T08:06:45.968Z,1012.32
2019-03-12T08:07:46.023Z,1012.27
2019-03-12T08:09:39.009Z,1012.22
2019-03-12T08:10:39.055Z,1012.21
2019-03-12T08:12:34.357Z,1012.12
2019-03-12T08:13:32.106Z,1012.14
2019-03-12T08:15:25.102Z,1012.12
2019-03-12T08:16:25.144Z,1012.15
2019-03-12T08:18:18.127Z,1012.09
2019-03-12T08:19:18.177Z,1012.04
2019-03-12T08:21:21.708Z,1012.04
2019-03-12T08:22:11.204Z,1012.00
2019-03-12T08:24:04.201Z,1011.92
2019-03-12T08:25:04.235Z,1011.95
2019-03-12T08:26:57.222Z,1011.86
2019-03-12T08:27:57.263Z,1011.85
2019-03-12T08:29:50.255Z,1011.73
2019-03-12T08:30:50.302Z,1011.72
2019-03-12T08:32:43.279Z,1011.62
2019-03-12T08:33:50.463Z,1011.57
2019-03-12T08:35:36.318Z,1011.56
2019-03-12T08:36:36.363Z,1011.54
2019-03-12T08:38:29.344Z,1011.49
2019-03-12T08:39:29.400Z,1011.45
2019-03-12T08:41:22.392Z,1011.40
2019-03-12T08:42:22.442Z,1011.36
2019-03-12T08:44:15.426Z,1011.33
2019-03-12T08:45:16.556Z,1011.30
2019-03-12T08:47:08.468Z,1011.16
2019-03-12T08:48:08.520Z,1011.14
2019-03-12T08:50:01.503Z,1011.08
2019-03-12T08:51:04.899Z,1011.07
2019-03-12T08:52:54.532Z,1011.02
2019-03-12T08:53:54.580Z,1011.02
2019-03-12T08:55:47.607Z,1010.97
2019-03-12T08:56:47.633Z,1010.90
2019-03-12T08:58:40.610Z,1010.87
2019-03-12T08:59:40.663Z,1010.81
2019-03-12T09:01:34.162Z,1010.74
2019-03-12T09:02:34.203Z,1010.77
2019-03-12T09:04:27.188Z,1010.81
2019-03-12T09:05:27.257Z,1010.73
2019-03-12T09:07:20.229Z,1010.64
2019-03-12T09:08:20.290Z,1010.62
2019-03-12T09:10:13.256Z,1010.59
2019-03-12T09:11:13.314Z,1010.55
2019-03-12T09:13:06.299Z,1010.49
2019-03-12T09:14:06.351Z,1010.50
2019-03-12T09:15:59.365Z,1010.43
2019-03-12T09:16:59.380Z,1010.41
2019-03-12T09:18:52.354Z,1010.37
2019-03-12T09:19:52.411Z,1010.33
2019-03-12T09:21:45.415Z,1010.31
2019-03-12T09:22:45.448Z,1010.23
2019-03-12T09:24:38.429Z,1010.19
2019-03-12T09:25:38.487Z,1010.19
2019-03-12T09:27:31.471Z,1010.14
2019-03-12T09:28:31.523Z,1010.11
2019-03-12T09:30:24.498Z,1010.08
2019-03-12T09:31:24.554Z,1009.99
2019-03-12T09:33:17.542Z,1009.96
2019-03-12T09:34:17.592Z,1009.86
2019-03-12T09:36:10.581Z,1009.83
2019-03-12T09:37:10.634Z,1009.86
2019-03-12T09:39:03.623Z,1009.82
2019-03-12T09:40:03.669Z,1009.68
2019-03-12T09:41:56.656Z,1009.74
2019-03-12T09:42:56.703Z,1009.75
2019-03-12T09:44:49.680Z,1009.60
2019-03-12T09:45:49.737Z,1009.54
2019-03-12T09:47:42.743Z,1009.60
2019-03-12T09:48:42.775Z,1009.57
2019-03-12T09:50:35.752Z,1009.51
2019-03-12T09:51:35.828Z,1009.52
2019-03-12T09:53:28.792Z,1009.55
2019-03-12T09:54:28.842Z,1009.56
2019-03-12T09:56:21.820Z,1009.45
2019-03-12T09:57:21.876Z,1009.37
2019-03-12T09:59:14.863Z,1009.31
2019-03-12T10:00:16.597Z,1009.30
2019-03-12T10:02:08.399Z,1009.19
2019-03-12T10:03:08.453Z,1009.24
2019-03-12T10:05:01.521Z,1009.09
2019-03-12T10:06:01.571Z,1009.12
2019-03-12T10:07:54.581Z,1009.01
2019-03-12T10:08:54.605Z,1009.01
2019-03-12T10:10:47.583Z,1008.91
2019-03-12T10:11:47.641Z,1008.88
2019-03-12T10:13:40.638Z,1008.76
2019-03-12T10:14:40.684Z,1008.72
2019-03-12T10:16:33.665Z,1008.73
2019-03-12T10:17:33.735Z,1008.73
2019-03-12T10:19:26.712Z,1008.72
2019-03-12T10:20:26.761Z,1008.76
2019-03-12T10:22:19.748Z,1008.70
2019-03-12T10:23:19.806Z,1008.69
2019-03-12T10:25:12.792Z,1008.59
2019-03-12T10:26:12.840Z,1008.57
2019-03-12T10:28:05.834Z,1008.41
2019-03-12T10:29:05.895Z,1008.45
2019-03-12T10:30:58.881Z,1008.42
2019-03-12T10:31:58.930Z,1008.46
2019-03-12T10:33:52.205Z,1008.33
2019-03-12T10:34:51.983Z,1008.10
2019-03-12T10:36:44.942Z,1008.13
2019-03-12T10:37:44.999Z,1008.16
2019-03-12T10:39:37.987Z,1008.16
2019-03-12T10:40:38.054Z,1008.04
2019-03-12T10:42:31.054Z,1007.95
2019-03-12T10:43:31.083Z,1007.96
2019-03-12T10:45:24.074Z,1007.99
2019-03-12T10:46:24.174Z,1007.95
2019-03-12T10:48:17.097Z,1007.87
2019-03-12T10:49:17.155Z,1007.82
2019-03-12T10:51:12.958Z,1007.74
2019-03-12T10:52:10.194Z,1007.78
2019-03-12T10:54:03.176Z,1007.75
2019-03-12T10:55:12.931Z,1007.66
2019-03-12T10:56:56.229Z,1007.64
2019-03-12T10:57:56.271Z,1007.64
2019-03-12T10:59:49.261Z,1007.60
2019-03-12T11:00:49.305Z,1007.47
2019-03-12T11:02:42.298Z,1007.52
2019-03-12T11:03:42.351Z,1007.36
2019-03-12T11:05:45.271Z,1007.45
2019-03-12T11:06:35.389Z,1007.35
2019-03-12T11:08:28.369Z,1007.34
2019-03-12T11:09:28.428Z,1007.35
2019-03-12T11:11:21.469Z,1007.20
2019-03-12T11:12:21.461Z,1007.20
2019-03-12T11:14:14.484Z,1007.25
2019-03-12T11:15:14.541Z,1007.19
2019-03-12T11:17:07.530Z,1007.16
2019-03-12T11:18:07.578Z,1007.17
2019-03-12T11:20:00.567Z,1007.06
2019-03-12T11:21:00.614Z,1007.01
2019-03-12T11:22:53.592Z,1006.94
2019-03-12T11:23:53.650Z,1006.95
2019-03-12T11:25:46.640Z,1006.87
2019-03-12T11:26:46.691Z,1006.97
2019-03-12T11:28:39.688Z,1006.85
2019-03-12T11:29:39.746Z,1006.83
2019-03-12T11:31:32.740Z,1006.74
2019-03-12T11:32:32.789Z,1006.75
2019-03-12T11:34:25.770Z,1006.73
2019-03-12T11:35:25.825Z,1006.68
2019-03-12T11:37:18.827Z,1006.59
2019-03-12T11:38:18.860Z,1006.45
2019-03-12T11:40:11.859Z,1006.52
2019-03-12T11:41:11.912Z,1006.48
2019-03-12T11:43:04.904Z,1006.36
2019-03-12T11:44:04.980Z,1006.36
2019-03-12T11:45:57.932Z,1006.32
2019-03-12T11:46:58.042Z,1006.29
2019-03-12T11:48:50.963Z,1006.25
2019-03-12T11:49:51.023Z,1006.25
2019-03-12T11:51:44.017Z,1006.27
2019-03-12T11:52:52.621Z,1006.15
2019-03-12T11:54:37.036Z,1006.05
2019-03-12T11:55:37.090Z,1006.05
2019-03-12T11:57:30.088Z,1005.93
2019-03-12T11:58:30.162Z,1005.99
2019-03-12T12:00:23.118Z,1005.98
2019-03-12T12:01:23.178Z,1005.92
2019-03-12T12:03:16.170Z,1005.92
2019-03-12T12:04:16.224Z,1005.94
2019-03-12T12:06:09.217Z,1005.84
2019-03-12T12:07:09.266Z,1005.89
2019-03-12T12:09:02.244Z,1005.90
2019-03-12T12:10:02.524Z,1005.91
2019-03-12T12:11:55.293Z,1005.79
2019-03-12T12:12:55.349Z,1005.81
2019-03-12T12:14:48.328Z,1005.70
2019-03-12T12:15:48.386Z,1005.72
2019-03-12T12:17:41.379Z,1005.52
2019-03-12T12:18:41.429Z,1005.65
2019-03-12T12:20:34.415Z,1005.60
2019-03-12T12:21:34.471Z,1005.64
2019-03-12T12:23:27.460Z,1005.61
2019-03-12T12:24:27.511Z,1005.53
2019-03-12T12:26:20.506Z,1005.48
2019-03-12T12:27:20.553Z,1005.43
2019-03-12T12:29:13.524Z,1005.43
2019-03-12T12:30:13.584Z,1005.40
2019-03-12T12:32:06.569Z,1005.37
2019-03-12T12:33:06.621Z,1005.28
2019-03-12T12:34:59.603Z,1005.25
2019-03-12T12:35:59.659Z,1005.11
2019-03-12T12:37:52.653Z,1005.03
2019-03-12T12:38:52.699Z,1005.08
2019-03-12T12:40:45.678Z,1005.08
2019-03-12T12:41:45.735Z,1005.02
2019-03-12T12:43:38.721Z,1005.02
2019-03-12T12:44:38.778Z,1004.99
2019-03-12T12:46:31.753Z,1004.89
2019-03-12T12:47:31.808Z,1004.90
2019-03-12T12:49:24.797Z,1004.89
2019-03-12T12:50:24.847Z,1004.82
2019-03-12T12:52:17.835Z,1004.71
2019-03-12T12:53:17.883Z,1004.79
2019-03-12T12:55:10.891Z,1004.63
2019-03-12T12:56:10.920Z,1004.60
2019-03-12T12:58:03.908Z,1004.56
2019-03-12T12:59:03.957Z,1004.62
2019-03-12T13:00:56.936Z,1004.39
2019-03-12T13:01:56.993Z,1004.40
2019-03-12T13:03:49.983Z,1004.30
2019-03-12T13:04:50.037Z,1004.26
2019-03-12T13:06:43.027Z,1003.98
2019-03-12T13:07:43.086Z,1004.11
2019-03-12T13:09:36.074Z,1004.14
2019-03-12T13:10:36.150Z,1004.07
2019-03-12T13:12:29.143Z,1004.01
2019-03-12T13:13:29.177Z,1003.98
2019-03-12T13:15:22.152Z,1003.81
2019-03-12T13:16:25.331Z,1003.87
2019-03-12T13:18:16.582Z,1003.95
2019-03-12T13:19:15.247Z,1003.86
2019-03-12T13:21:08.226Z,1003.65
2019-03-12T13:22:08.280Z,1003.74
2019-03-12T13:24:01.287Z,1003.65
2019-03-12T13:25:01.327Z,1003.69
2019-03-12T13:26:54.324Z,1003.59
2019-03-12T13:27:54.358Z,1003.48
2019-03-12T13:29:47.368Z,1003.43
2019-03-12T13:30:47.414Z,1003.39
2019-03-12T13:32:40.394Z,1003.32
2019-03-12T13:33:40.453Z,1003.24
2019-03-12T13:35:33.440Z,1003.22
2019-03-12T13:36:33.486Z,1003.26
2019-03-12T13:38:26.480Z,1003.20
2019-03-12T13:39:26.554Z,1003.08
2019-03-12T13:41:19.551Z,1003.14
2019-03-12T13:42:20.696Z,1003.08
2019-03-12T13:44:12.569Z,1003.09
2019-03-12T13:45:12.653Z,1003.06
2019-03-12T13:47:05.637Z,1002.98
2019-03-12T13:48:05.700Z,1002.95
2019-03-12T13:49:58.647Z,1002.78
2019-03-12T13:50:58.730Z,1002.78
2019-03-12T13:52:51.818Z,1002.82
2019-03-12T13:53:51.756Z,1002.76
2019-03-12T13:55:44.736Z,1002.80
2019-03-12T13:56:44.789Z,1002.67
2019-03-12T13:58:37.769Z,1002.86
2019-03-12T13:59:37.813Z,1002.63
2019-03-12T14:01:31.306Z,1002.67
2019-03-12T14:02:31.375Z,1002.66
2019-03-12T14:04:24.346Z,1002.57
2019-03-12T14:05:24.397Z,1002.50
2019-03-12T14:07:17.371Z,1002.40
2019-03-12T14:08:17.431Z,1002.44
2019-03-12T14:10:10.422Z,1002.26
2019-03-12T14:11:10.468Z,1002.25
2019-03-12T14:13:03.449Z,1002.17
2019-03-12T14:14:03.506Z,1002.16
2019-03-12T14:15:56.504Z,1002.09
2019-03-12T14:16:56.554Z,1002.10
2019-03-12T14:18:49.565Z,1001.98
2019-03-12T14:19:49.595Z,1002.04
2019-03-12T14:21:42.578Z,1002.00
2019-03-12T14:22:42.631Z,1001.96
2019-03-12T14:24:35.618Z,1001.85
2019-03-12T14:25:35.667Z,1001.80
2019-03-12T14:27:28.651Z,1001.72
2019-03-12T14:28:28.710Z,1001.70
2019-03-12T14:30:21.704Z,1001.55
2019-03-12T14:31:21.755Z,1001.66
2019-03-12T14:33:14.739Z,1001.60
2019-03-12T14:34:14.831Z,1001.65
2019-03-12T14:36:07.787Z,1001.49
2019-03-12T14:37:07.835Z,1001.48
2019-03-12T14:39:00.825Z,1001.45
2019-03-12T14:40:00.878Z,1001.43
2019-03-12T14:41:53.872Z,1001.28
2019-03-12T14:42:53.928Z,1001.27
2019-03-12T14:44:47.477Z,1001.26
2019-03-12T14:45:47.084Z,1001.22
2019-03-12T14:47:40.006Z,1001.18
2019-03-12T14:48:40.030Z,1001.04
2019-03-12T14:50:33.023Z,1001.07
2019-03-12T14:51:33.225Z,1000.98
2019-03-12T14:53:26.129Z,1000.94
2019-03-12T14:54:26.145Z,1000.95
2019-03-12T14:56:19.116Z,1000.91
2019-03-12T14:57:19.162Z,1000.84
2019-03-12T14:59:12.142Z,1000.84
2019-03-12T15:00:12.200Z,1000.77
2019-03-12T15:02:05.695Z,1000.78
2019-03-12T15:03:05.743Z,1000.68
2019-03-12T15:04:58.725Z,1000.67
2019-03-12T15:05:58.784Z,1000.62
2019-03-12T15:07:51.779Z,1000.60
2019-03-12T15:08:51.824Z,1000.57
2019-03-12T15:10:44.815Z,1000.45
2019-03-12T15:11:44.869Z,1000.41
2019-03-12T15:13:37.856Z,1000.28
2019-03-12T15:14:37.915Z,1000.28
2019-03-12T15:16:30.896Z,1000.22
2019-03-12T15:17:30.946Z,1000.17
2019-03-12T15:19:23.926Z,1000.05
2019-03-12T15:20:23.981Z,999.99
2019-03-12T15:22:16.988Z,1000.02
2019-03-12T15:23:17.021Z,999.96
2019-03-12T15:25:09.999Z,999.91
2019-03-12T15:26:10.077Z,999.90
2019-03-12T15:28:03.044Z,999.86
2019-03-12T15:29:03.094Z,999.88
2019-03-12T15:30:56.083Z,999.84
2019-03-12T15:32:04.069Z,999.73
2019-03-12T15:33:49.115Z,999.69
2019-03-12T15:34:49.167Z,999.74
2019-03-12T15:36:45.216Z,999.44
2019-03-12T15:37:42.248Z,999.49
2019-03-12T15:39:35.184Z,999.56
2019-03-12T15:40:35.238Z,999.52
2019-03-12T15:42:28.228Z,999.41
2019-03-12T15:43:28.277Z,999.51
2019-03-12T15:45:21.258Z,999.19
2019-03-12T15:46:21.377Z,999.25
2019-03-12T15:48:14.304Z,999.15
2019-03-12T15:49:14.350Z,999.02
2019-03-12T15:51:07.332Z,998.95
2019-03-12T15:52:07.383Z,998.97
2019-03-12T15:54:00.412Z,998.86
2019-03-12T15:55:00.420Z,998.83
2019-03-12T15:56:53.420Z,998.88
2019-03-12T15:57:53.464Z,998.82
2019-03-12T15:59:46.456Z,998.83
2019-03-12T16:00:46.516Z,998.75
2019-03-12T16:02:39.628Z,998.65
2019-03-12T16:03:41.854Z,998.63
2019-03-12T16:05:32.529Z,998.50
2019-03-12T16:06:32.643Z,998.53
2019-03-12T16:08:25.588Z,998.44
2019-03-12T16:09:25.613Z,998.45
2019-03-12T16:11:18.686Z,998.37
2019-03-12T16:12:18.656Z,998.39
2019-03-12T16:14:11.649Z,998.29
2019-03-12T16:15:11.687Z,998.25
2019-03-12T16:17:04.675Z,998.11
2019-03-12T16:18:04.724Z,998.08
2019-03-12T16:19:57.713Z,998.05
2019-03-12T16:20:57.770Z,998.01
2019-03-12T16:22:50.771Z,997.87
2019-03-12T16:23:52.742Z,997.84
2019-03-12T16:25:43.830Z,997.81
2019-03-12T16:26:43.862Z,997.87
2019-03-12T16:28:36.949Z,998.01
2019-03-12T16:29:36.901Z,997.86
2019-03-12T16:31:29.880Z,997.77
2019-03-12T16:32:29.936Z,997.71
2019-03-12T16:34:22.925Z,997.55
2019-03-12T16:35:22.977Z,997.62
2019-03-12T16:37:15.958Z,997.54
2019-03-12T16:38:16.008Z,997.44
2019-03-12T16:40:08.987Z,997.38
2019-03-12T16:41:09.042Z,997.36
2019-03-12T16:43:02.039Z,997.30
2019-03-12T16:44:02.086Z,997.35
2019-03-12T16:45:55.064Z,997.32
2019-03-12T16:46:55.119Z,997.23
2019-03-12T16:48:48.131Z,997.12
2019-03-12T16:49:48.157Z,997.13
2019-03-12T16:51:41.134Z,997.06
2019-03-12T16:52:41.193Z,996.98
2019-03-12T16:54:34.168Z,997.00
2019-03-12T16:55:34.227Z,996.93
2019-03-12T16:57:27.233Z,996.86
2019-03-12T16:58:27.291Z,996.88
2019-03-12T17:00:20.275Z,996.80
2019-03-12T17:01:20.306Z,996.74
2019-03-12T17:03:13.289Z,996.63
2019-03-12T17:04:13.343Z,996.63
2019-03-12T17:06:06.349Z,996.62
2019-03-12T17:07:06.374Z,996.56
2019-03-12T17:08:59.364Z,996.57
2019-03-12T17:09:59.409Z,996.57
2019-03-12T17:11:52.394Z,996.56
2019-03-12T17:12:52.453Z,996.49
2019-03-12T17:14:45.474Z,996.42
2019-03-12T17:15:45.523Z,996.38
2019-03-12T17:17:38.512Z,996.35
2019-03-12T17:18:38.619Z,996.21
2019-03-12T17:20:31.560Z,996.13
2019-03-12T17:21:32.860Z,996.12
2019-03-12T17:23:24.593Z,996.10
2019-03-12T17:24:24.658Z,996.05
2019-03-12T17:26:17.619Z,996.14
2019-03-12T17:27:17.691Z,996.03
2019-03-12T17:29:10.663Z,995.97
2019-03-12T17:30:10.718Z,995.97